Česky Dansk Deutsch English Español Suomi Français Magyar Italiano Nederlands norsk Polski Português svenska Türkçe

 

Het Weer

Dinard (Frankrijk)

14:00, 17 augustus 2016 (GMT)

NWNNE
WE
SWSSE
Home            
Dinard Saint-Brieuc Rennes Jersey Airport Guernsey Airport Lannion / Servel Cherbourg / Maupertus Alderney / Channel Island Morlaix / Ploujean Caen Lann Bihoue St-Nazaire Landivisiau Nantes Alencon Angers Quimper Brest Lanveoc Poulmic Le Mans La Heve La Roche-Sur-Yon Portland / Rnas

Om een weerknop op uw website of weblog te plaatsen, copieer onderstaande code en plak die in uw pagina. In het eerste vakje staat HTML-code, in het tweede vakje UBB-code.


Add to Google

Details

Wind speed:3 bf, 9 kn, 4.6 m/s, 10.4 miles/h, 16.7 km/h
Wind direction:NNW, 340°
Visibility:Greater than 10000 m, 10 km, 32800 ft, 6.2 miles
Temperature:23°C, 73°F
Gefühlte Temperatur:24°C, 76°F
Dew-point:16°C, 61°F
Atmospheric pressure:1011 hPa, 758.3 mmHg, 29.85 inHg, 0.998 atm
Relative humidity:64.7 %
METAR:LFRD 171400Z AUTO 34009KT 9999 NCD 23/16 Q1011 NOSIG

Snelkoppelingen

Actuele weersinformatie van de hele wereld. Voeg locaties toe met het plus (+) symbool. Deze snelkoppelingen kunnen worden toegevoegd aan Google.

Lid van de Technetium groep

website free tracking
StatCounter NetStat W3C Validator

17-04-2021 03:23:40
astro.technetium.be money.technetium.be phote.technetium.be tafeltennistafel.technetium.be www.ligfiets.net